createdAt,value
2023-05-19T00:02:06.503Z,11.00
2023-05-19T00:04:34.597Z,11.03
2023-05-19T00:07:03.705Z,10.92
2023-05-19T00:09:31.731Z,10.97
2023-05-19T00:12:00.069Z,11.02
2023-05-19T00:14:27.976Z,11.01
2023-05-19T00:16:57.807Z,11.00
2023-05-19T00:19:25.579Z,11.05
2023-05-19T00:21:53.291Z,11.03
2023-05-19T00:24:20.629Z,10.91
2023-05-19T00:26:48.506Z,10.80
2023-05-19T00:29:15.803Z,10.57
2023-05-19T00:31:43.546Z,10.66
2023-05-19T00:34:12.406Z,10.67
2023-05-19T00:36:40.449Z,10.76
2023-05-19T00:39:07.821Z,10.91
2023-05-19T00:41:35.637Z,11.01
2023-05-19T00:44:06.811Z,11.03
2023-05-19T00:46:34.700Z,11.01
2023-05-19T00:49:02.536Z,10.90
2023-05-19T00:51:31.971Z,10.79
2023-05-19T00:53:59.604Z,10.66
2023-05-19T00:56:27.413Z,10.65
2023-05-19T00:58:55.331Z,10.63
2023-05-19T01:01:23.582Z,10.71
2023-05-19T01:03:51.350Z,10.71
2023-05-19T01:06:19.476Z,10.60
2023-05-19T01:08:48.455Z,10.65
2023-05-19T01:11:16.381Z,10.69
2023-05-19T01:13:44.208Z,10.69
2023-05-19T01:16:19.047Z,10.80
2023-05-19T01:18:54.528Z,10.87
2023-05-19T01:21:38.814Z,10.98
2023-05-19T01:24:23.376Z,11.04
2023-05-19T01:27:38.883Z,11.17
2023-05-19T01:30:37.082Z,11.11
2023-05-19T01:33:08.465Z,11.10
2023-05-19T01:35:37.794Z,11.07
2023-05-19T01:38:09.416Z,11.13
2023-05-19T01:40:38.631Z,11.19
2023-05-19T01:43:09.456Z,11.23
2023-05-19T01:45:40.071Z,11.26
2023-05-19T01:48:10.832Z,11.32
2023-05-19T01:50:39.552Z,11.31
2023-05-19T01:53:07.575Z,11.20
2023-05-19T01:55:35.902Z,11.04
2023-05-19T01:58:14.071Z,10.93
2023-05-19T02:00:53.152Z,10.93
2023-05-19T02:03:35.421Z,10.83
2023-05-19T02:06:18.463Z,10.86
2023-05-19T02:08:57.274Z,10.85
2023-05-19T02:11:35.788Z,10.69
2023-05-19T02:14:09.269Z,10.63
2023-05-19T02:16:40.124Z,10.83
2023-05-19T02:19:20.660Z,10.75
2023-05-19T02:21:48.192Z,10.76
2023-05-19T02:24:15.980Z,10.80
2023-05-19T02:26:43.364Z,10.95
2023-05-19T02:29:11.115Z,10.98
2023-05-19T02:31:40.030Z,10.89
2023-05-19T02:34:07.933Z,10.80
2023-05-19T02:36:35.813Z,10.84
2023-05-19T02:39:03.671Z,10.84
2023-05-19T02:41:31.134Z,10.84
2023-05-19T02:43:59.101Z,10.86
2023-05-19T02:46:26.541Z,10.84
2023-05-19T02:48:55.557Z,10.79
2023-05-19T02:51:23.046Z,10.89
2023-05-19T02:53:51.005Z,10.80
2023-05-19T02:56:18.468Z,10.79
2023-05-19T02:58:46.312Z,10.57
2023-05-19T03:01:13.696Z,10.72
2023-05-19T03:03:41.537Z,10.58
2023-05-19T03:06:10.464Z,10.57
2023-05-19T03:08:40.766Z,10.61
2023-05-19T03:11:09.531Z,10.62
2023-05-19T03:13:37.297Z,10.68
2023-05-19T03:16:05.006Z,10.76
2023-05-19T03:18:32.854Z,10.69
2023-05-19T03:21:00.235Z,10.64
2023-05-19T03:23:29.427Z,10.74
2023-05-19T03:25:56.652Z,10.88
2023-05-19T03:28:24.453Z,10.97
2023-05-19T03:30:51.735Z,10.96
2023-05-19T03:33:19.532Z,10.98
2023-05-19T03:35:47.267Z,11.06
2023-05-19T03:38:15.179Z,11.01
2023-05-19T03:40:44.060Z,11.20
2023-05-19T03:43:11.840Z,11.21
2023-05-19T03:45:39.377Z,11.26
2023-05-19T03:48:07.367Z,11.18
2023-05-19T03:50:34.763Z,11.23
2023-05-19T03:53:02.829Z,11.37
2023-05-19T03:55:30.404Z,11.35
2023-05-19T03:57:59.649Z,11.38
2023-05-19T04:00:26.951Z,11.49
2023-05-19T04:02:54.788Z,11.43
2023-05-19T04:05:22.348Z,11.37
2023-05-19T04:07:50.296Z,11.36
2023-05-19T04:10:17.651Z,11.42
2023-05-19T04:12:45.819Z,11.42
2023-05-19T04:15:14.768Z,11.53
2023-05-19T04:17:43.199Z,11.63
2023-05-19T04:20:12.021Z,11.57
2023-05-19T04:22:39.780Z,11.58
2023-05-19T04:25:07.924Z,11.79
2023-05-19T04:27:35.899Z,11.74
2023-05-19T04:30:03.482Z,11.81
2023-05-19T04:32:32.789Z,11.93
2023-05-19T04:35:00.179Z,12.00
2023-05-19T04:37:28.087Z,12.04
2023-05-19T04:39:56.017Z,11.88
2023-05-19T04:42:23.829Z,12.02
2023-05-19T04:44:51.202Z,12.04
2023-05-19T04:47:19.864Z,12.22
2023-05-19T04:49:48.733Z,12.19
2023-05-19T04:52:16.501Z,12.08
2023-05-19T04:54:43.871Z,12.03
2023-05-19T04:57:11.483Z,12.03
2023-05-19T04:59:38.857Z,12.12
2023-05-19T05:02:07.075Z,12.18
2023-05-19T05:04:34.604Z,11.86
2023-05-19T05:07:03.931Z,12.03
2023-05-19T05:09:31.193Z,12.26
2023-05-19T05:11:59.509Z,12.17
2023-05-19T05:14:27.497Z,12.05
2023-05-19T05:16:55.832Z,12.15
2023-05-19T05:19:23.892Z,12.16
2023-05-19T05:21:52.465Z,12.14
2023-05-19T05:24:22.057Z,12.32
2023-05-19T05:26:50.335Z,12.07
2023-05-19T05:29:17.738Z,12.10
2023-05-19T05:31:45.572Z,12.20
2023-05-19T05:34:13.346Z,11.90
2023-05-19T05:36:41.057Z,12.04
2023-05-19T05:39:08.548Z,12.10
2023-05-19T05:41:37.852Z,12.17
2023-05-19T05:44:05.602Z,12.33
2023-05-19T05:46:33.421Z,12.33
2023-05-19T05:49:01.442Z,12.38
2023-05-19T05:51:29.664Z,12.39
2023-05-19T05:53:58.963Z,12.32
2023-05-19T05:56:27.177Z,12.33
2023-05-19T05:58:56.095Z,12.25
2023-05-19T06:01:23.985Z,12.29
2023-05-19T06:03:51.535Z,12.39
2023-05-19T06:06:19.564Z,12.49
2023-05-19T06:08:46.948Z,12.39
2023-05-19T06:11:14.719Z,12.33
2023-05-19T06:13:42.204Z,12.41
2023-05-19T06:16:11.493Z,12.55
2023-05-19T06:18:39.080Z,12.39
2023-05-19T06:21:06.823Z,12.42
2023-05-19T06:23:34.195Z,12.30
2023-05-19T06:26:02.033Z,12.34
2023-05-19T06:28:29.416Z,12.46
2023-05-19T06:30:57.292Z,12.57
2023-05-19T06:33:28.767Z,12.72
2023-05-19T06:35:56.923Z,12.71
2023-05-19T06:38:24.260Z,12.67
2023-05-19T06:40:52.019Z,12.84
2023-05-19T06:43:19.403Z,12.76
2023-05-19T06:45:47.241Z,12.36
2023-05-19T06:48:14.700Z,12.42
2023-05-19T06:50:43.882Z,12.54
2023-05-19T06:53:11.313Z,12.23
2023-05-19T06:55:50.433Z,12.16
2023-05-19T06:58:25.263Z,12.10
2023-05-19T07:00:53.076Z,11.95
2023-05-19T07:03:20.622Z,11.70
2023-05-19T07:05:50.037Z,11.70
2023-05-19T07:08:17.457Z,11.71
2023-05-19T07:10:45.261Z,11.89
2023-05-19T07:13:12.626Z,12.01
2023-05-19T07:15:40.393Z,11.94
2023-05-19T07:18:07.777Z,11.85
2023-05-19T07:20:35.751Z,11.88
2023-05-19T07:23:04.581Z,11.99
2023-05-19T07:25:32.566Z,12.23
2023-05-19T07:28:00.063Z,12.30
2023-05-19T07:30:28.214Z,12.38
2023-05-19T07:32:55.885Z,12.39
2023-05-19T07:35:24.015Z,12.32
2023-05-19T07:37:52.001Z,12.29
2023-05-19T07:40:21.463Z,12.09
2023-05-19T07:42:49.758Z,12.24
2023-05-19T07:45:17.698Z,12.33
2023-05-19T07:47:45.178Z,12.06
2023-05-19T07:50:13.088Z,12.07
2023-05-19T07:52:40.488Z,11.93
2023-05-19T07:55:08.350Z,11.85
2023-05-19T07:57:37.742Z,11.79
2023-05-19T08:00:06.770Z,11.83
2023-05-19T08:02:34.210Z,11.68
2023-05-19T08:05:02.127Z,11.73
2023-05-19T08:07:29.559Z,11.60
2023-05-19T08:09:57.283Z,11.63
2023-05-19T08:12:24.619Z,11.63
2023-05-19T08:14:53.811Z,11.76
2023-05-19T08:17:21.309Z,11.79
2023-05-19T08:19:49.111Z,11.92
2023-05-19T08:22:16.624Z,11.80
2023-05-19T08:24:44.448Z,11.88
2023-05-19T08:27:11.922Z,11.99
2023-05-19T08:29:39.803Z,11.87
2023-05-19T08:32:09.791Z,11.82
2023-05-19T08:34:39.444Z,11.93
2023-05-19T08:37:06.743Z,12.06
2023-05-19T08:39:34.684Z,12.21
2023-05-19T08:42:02.088Z,12.33
2023-05-19T08:44:30.020Z,12.63
2023-05-19T08:47:00.107Z,12.63
2023-05-19T08:49:33.550Z,12.65
2023-05-19T08:52:10.026Z,12.53
2023-05-19T08:54:46.273Z,12.41
2023-05-19T08:57:14.343Z,12.50
2023-05-19T08:59:43.620Z,12.61
2023-05-19T09:02:13.183Z,12.56
2023-05-19T09:04:43.651Z,12.63
2023-05-19T09:07:11.394Z,12.67
2023-05-19T09:09:39.234Z,12.74
2023-05-19T09:12:06.826Z,12.87
2023-05-19T09:14:34.586Z,12.91
2023-05-19T09:17:02.362Z,13.31
2023-05-19T09:19:30.356Z,13.01
2023-05-19T09:22:02.841Z,13.05
2023-05-19T09:24:30.598Z,13.00
2023-05-19T09:27:00.109Z,12.87
2023-05-19T09:29:28.234Z,12.78
2023-05-19T09:31:56.370Z,12.69
2023-05-19T09:34:24.277Z,12.61
2023-05-19T09:36:51.739Z,12.69
2023-05-19T09:39:22.595Z,12.62
2023-05-19T09:41:52.282Z,12.82
2023-05-19T09:44:23.785Z,12.92
2023-05-19T09:46:51.880Z,13.22
2023-05-19T09:49:21.181Z,13.06
2023-05-19T09:51:54.023Z,13.16
2023-05-19T09:54:24.481Z,13.30
2023-05-19T09:56:56.539Z,13.53
2023-05-19T09:59:25.295Z,13.75
2023-05-19T10:01:55.049Z,13.75
2023-05-19T10:04:23.746Z,13.94
2023-05-19T10:06:52.131Z,14.21
2023-05-19T10:09:24.123Z,14.59
2023-05-19T10:11:52.696Z,14.78
2023-05-19T10:14:23.436Z,14.63
2023-05-19T10:16:51.782Z,14.74
2023-05-19T10:19:21.501Z,14.50
2023-05-19T10:21:57.525Z,14.36
2023-05-19T10:24:25.513Z,14.21
2023-05-19T10:26:57.508Z,14.30
2023-05-19T10:29:28.856Z,14.05
2023-05-19T10:31:59.323Z,14.00
2023-05-19T10:35:00.230Z,13.95
2023-05-19T10:37:40.576Z,13.92
2023-05-19T10:40:13.835Z,14.12
2023-05-19T10:42:50.517Z,14.14
2023-05-19T10:45:22.467Z,14.11
2023-05-19T10:47:51.235Z,14.35
2023-05-19T10:50:20.752Z,14.08
2023-05-19T10:52:56.142Z,13.99
2023-05-19T10:55:44.923Z,13.64
2023-05-19T10:58:12.349Z,13.78
2023-05-19T11:00:40.346Z,13.94
2023-05-19T11:03:14.864Z,14.21
2023-05-19T11:05:42.826Z,14.12
2023-05-19T11:08:12.742Z,14.18
2023-05-19T11:10:44.314Z,14.20
2023-05-19T11:13:19.696Z,13.82
2023-05-19T11:15:47.449Z,13.70
2023-05-19T11:18:14.964Z,13.53
2023-05-19T11:20:42.762Z,13.54
2023-05-19T11:23:16.854Z,13.81
2023-05-19T11:25:45.832Z,14.08
2023-05-19T11:28:15.592Z,13.93
2023-05-19T11:30:44.882Z,13.84
2023-05-19T11:33:13.034Z,13.94
2023-05-19T11:35:41.164Z,14.15
2023-05-19T11:38:08.746Z,14.16
2023-05-19T11:40:38.123Z,14.14
2023-05-19T11:43:05.534Z,14.04
2023-05-19T11:45:35.172Z,14.09
2023-05-19T11:48:03.428Z,14.27
2023-05-19T11:50:31.822Z,14.36
2023-05-19T11:53:01.447Z,14.42
2023-05-19T11:55:29.878Z,14.67
2023-05-19T12:00:31.349Z,14.29
2023-05-19T12:02:58.927Z,14.07
2023-05-19T12:05:27.369Z,13.93
2023-05-19T12:07:55.362Z,13.83
2023-05-19T12:10:23.903Z,13.88
2023-05-19T12:12:51.844Z,13.97
2023-05-19T12:15:21.563Z,13.96
2023-05-19T12:17:56.657Z,14.34
2023-05-19T12:20:25.127Z,14.40
2023-05-19T12:22:54.051Z,14.39
2023-05-19T12:25:22.516Z,14.61
2023-05-19T12:27:50.339Z,14.52
2023-05-19T12:30:18.236Z,14.34
2023-05-19T12:32:47.140Z,14.29
2023-05-19T12:35:15.831Z,14.54
2023-05-19T12:37:43.229Z,14.36
2023-05-19T12:40:16.557Z,14.09
2023-05-19T12:42:45.120Z,14.09
2023-05-19T12:45:12.971Z,14.18
2023-05-19T12:47:40.419Z,14.31
2023-05-19T12:50:10.769Z,14.18
2023-05-19T12:52:43.421Z,13.97
2023-05-19T12:55:11.773Z,13.74
2023-05-19T12:57:40.449Z,13.87
2023-05-19T13:00:14.344Z,14.08
2023-05-19T13:02:58.862Z,14.08
2023-05-19T13:05:29.720Z,14.22
2023-05-19T13:07:58.474Z,14.16
2023-05-19T13:10:27.015Z,14.06
2023-05-19T13:12:54.877Z,14.23
2023-05-19T13:15:23.568Z,14.18
2023-05-19T13:17:51.375Z,14.10
2023-05-19T13:20:19.383Z,14.32
2023-05-19T13:22:49.376Z,14.13
2023-05-19T13:25:17.411Z,14.18
2023-05-19T13:27:45.069Z,14.38
2023-05-19T13:30:13.096Z,14.41
2023-05-19T13:32:40.557Z,14.45
2023-05-19T13:35:10.206Z,14.25
2023-05-19T13:37:38.129Z,14.19
2023-05-19T13:40:08.856Z,14.10
2023-05-19T13:42:36.786Z,14.12
2023-05-19T13:45:05.920Z,14.15
2023-05-19T13:47:33.373Z,14.19
2023-05-19T13:50:02.335Z,14.15
2023-05-19T13:52:30.506Z,14.19
2023-05-19T13:54:58.358Z,14.05
2023-05-19T13:57:27.318Z,14.25
2023-05-19T14:00:03.214Z,14.43
2023-05-19T14:02:31.788Z,14.37
2023-05-19T14:04:59.690Z,14.13
2023-05-19T14:07:27.114Z,14.11
2023-05-19T14:09:55.080Z,14.27
2023-05-19T14:12:25.540Z,14.23
2023-05-19T14:15:01.167Z,14.12
2023-05-19T14:17:28.584Z,14.22
2023-05-19T14:19:56.457Z,14.29
2023-05-19T14:22:24.103Z,14.23
2023-05-19T14:24:52.112Z,14.24
2023-05-19T14:27:19.551Z,14.47
2023-05-19T14:29:47.317Z,14.39
2023-05-19T14:32:16.840Z,14.44
2023-05-19T14:34:44.665Z,14.47
2023-05-19T14:37:12.112Z,14.69
2023-05-19T14:39:39.981Z,14.60
2023-05-19T14:42:07.308Z,14.69
2023-05-19T14:44:35.199Z,14.74
2023-05-19T14:47:02.721Z,14.87
2023-05-19T14:49:32.286Z,14.82
2023-05-19T14:51:59.713Z,14.85
2023-05-19T14:54:27.349Z,15.18
2023-05-19T14:56:54.810Z,14.91
2023-05-19T14:59:22.599Z,15.17
2023-05-19T15:01:50.178Z,15.53
2023-05-19T15:04:18.054Z,15.79
2023-05-19T15:06:52.226Z,15.80
2023-05-19T15:09:26.435Z,15.54
2023-05-19T15:11:54.072Z,15.60
2023-05-19T15:14:21.780Z,15.61
2023-05-19T15:16:49.390Z,15.63
2023-05-19T15:19:17.187Z,15.48
2023-05-19T15:21:46.193Z,15.32
2023-05-19T15:24:14.046Z,15.15
2023-05-19T15:26:41.708Z,14.72
2023-05-19T15:29:09.495Z,14.74
2023-05-19T15:31:38.281Z,14.93
2023-05-19T15:34:06.308Z,15.00
2023-05-19T15:36:33.730Z,14.94
2023-05-19T15:39:03.196Z,14.59
2023-05-19T15:41:30.593Z,14.47
2023-05-19T15:43:58.499Z,14.50
2023-05-19T15:46:26.009Z,14.46
2023-05-19T15:48:53.870Z,14.84
2023-05-19T15:51:21.537Z,14.84
2023-05-19T15:53:49.370Z,14.93
2023-05-19T15:56:18.412Z,14.89
2023-05-19T15:58:46.242Z,14.62
2023-05-19T16:01:14.270Z,14.66
2023-05-19T16:03:42.784Z,14.93
2023-05-19T16:06:10.234Z,14.79
2023-05-19T16:08:38.272Z,14.86
2023-05-19T16:11:05.862Z,15.06
2023-05-19T16:13:35.010Z,14.90
2023-05-19T16:16:02.588Z,14.66
2023-05-19T16:18:30.416Z,14.59
2023-05-19T16:20:57.782Z,14.53
2023-05-19T16:23:25.626Z,14.30
2023-05-19T16:25:53.898Z,14.37
2023-05-19T16:28:23.838Z,14.33
2023-05-19T16:30:57.461Z,14.49
2023-05-19T16:33:25.340Z,14.50
2023-05-19T16:35:52.837Z,14.71
2023-05-19T16:38:20.738Z,14.58
2023-05-19T16:40:48.137Z,14.40
2023-05-19T16:43:15.942Z,14.31
2023-05-19T16:45:43.397Z,14.27
2023-05-19T16:48:12.941Z,14.43
2023-05-19T16:50:40.838Z,14.43
2023-05-19T16:53:11.307Z,14.36
2023-05-19T16:55:38.738Z,14.30
2023-05-19T16:58:06.557Z,14.33
2023-05-19T17:00:34.123Z,14.42
2023-05-19T17:03:02.169Z,14.39
2023-05-19T17:05:31.185Z,14.57
2023-05-19T17:07:59.004Z,14.52
2023-05-19T17:10:26.459Z,14.48
2023-05-19T17:12:54.329Z,14.59
2023-05-19T17:15:21.892Z,14.54
2023-05-19T17:17:49.732Z,14.55
2023-05-19T17:20:17.264Z,14.60
2023-05-19T17:22:46.704Z,14.65
2023-05-19T17:25:14.237Z,14.82
2023-05-19T17:27:42.058Z,14.89
2023-05-19T17:30:10.084Z,14.81
2023-05-19T17:32:38.314Z,14.77
2023-05-19T17:35:07.187Z,14.79
2023-05-19T17:37:35.122Z,14.61
2023-05-19T17:40:04.668Z,14.62
2023-05-19T17:42:32.683Z,14.70
2023-05-19T17:45:00.344Z,14.83
2023-05-19T17:47:28.172Z,14.72
2023-05-19T17:49:55.529Z,14.80
2023-05-19T17:52:23.997Z,14.99
2023-05-19T17:54:52.077Z,15.04
2023-05-19T17:57:24.996Z,15.14
2023-05-19T17:59:52.962Z,15.22
2023-05-19T18:02:21.366Z,15.27
2023-05-19T18:04:49.504Z,15.24
2023-05-19T18:07:18.447Z,15.24
2023-05-19T18:09:46.502Z,15.29
2023-05-19T18:12:14.562Z,15.19
2023-05-19T18:14:43.640Z,15.34
2023-05-19T18:17:11.447Z,15.31
2023-05-19T18:19:39.004Z,15.29
2023-05-19T18:22:06.856Z,15.23
2023-05-19T18:24:34.295Z,15.21
2023-05-19T18:27:02.055Z,15.28
2023-05-19T18:29:29.489Z,15.29
2023-05-19T18:31:58.869Z,15.20
2023-05-19T18:34:26.434Z,15.04
2023-05-19T18:36:54.253Z,15.08
2023-05-19T18:39:21.703Z,14.99
2023-05-19T18:41:50.280Z,15.00
2023-05-19T18:44:17.751Z,15.01
2023-05-19T18:46:45.608Z,15.02
2023-05-19T18:49:14.448Z,15.03
2023-05-19T18:51:42.436Z,15.07
2023-05-19T18:54:09.915Z,15.12
2023-05-19T18:56:37.820Z,15.12
2023-05-19T18:59:05.286Z,15.21
2023-05-19T19:01:33.014Z,15.33
2023-05-19T19:04:00.493Z,15.19
2023-05-19T19:06:29.793Z,15.14
2023-05-19T19:08:57.264Z,15.21
2023-05-19T19:11:25.169Z,15.06
2023-05-19T19:13:52.627Z,14.93
2023-05-19T19:16:20.530Z,14.97
2023-05-19T19:18:48.064Z,15.13
2023-05-19T19:21:15.998Z,15.25
2023-05-19T19:23:44.978Z,15.38
2023-05-19T19:26:12.728Z,15.24
2023-05-19T19:28:40.115Z,15.23
2023-05-19T19:31:07.981Z,15.39
2023-05-19T19:33:35.538Z,15.25
2023-05-19T19:36:03.542Z,15.18
2023-05-19T19:38:31.078Z,15.11
2023-05-19T19:41:00.401Z,15.19
2023-05-19T19:43:27.923Z,15.17
2023-05-19T19:45:59.579Z,15.26
2023-05-19T19:48:27.335Z,15.22
2023-05-19T19:50:55.457Z,15.26
2023-05-19T19:53:23.514Z,15.20
2023-05-19T19:56:00.422Z,15.10
2023-05-19T19:58:28.865Z,15.08
2023-05-19T20:00:57.462Z,15.20
2023-05-19T20:03:25.575Z,15.08
2023-05-19T20:05:55.690Z,15.06
2023-05-19T20:08:23.842Z,14.89
2023-05-19T20:10:51.838Z,14.98
2023-05-19T20:13:20.792Z,14.98
2023-05-19T20:15:48.883Z,14.96
2023-05-19T20:18:16.424Z,14.76
2023-05-19T20:20:44.390Z,14.66
2023-05-19T20:23:12.118Z,14.66
2023-05-19T20:25:42.544Z,14.67
2023-05-19T20:28:17.790Z,14.72
2023-05-19T20:30:47.017Z,14.62
2023-05-19T20:33:14.547Z,14.52
2023-05-19T20:35:42.412Z,14.46
2023-05-19T20:38:09.835Z,14.28
2023-05-19T20:40:37.782Z,14.23
2023-05-19T20:43:05.140Z,14.23
2023-05-19T20:45:33.226Z,14.20
2023-05-19T20:48:02.560Z,14.01
2023-05-19T20:50:30.305Z,13.99
2023-05-19T20:52:57.797Z,14.04
2023-05-19T20:55:25.725Z,14.16
2023-05-19T20:57:53.230Z,14.16
2023-05-19T21:00:21.244Z,14.07
2023-05-19T21:02:48.838Z,13.96
2023-05-19T21:05:18.326Z,13.86
2023-05-19T21:07:45.785Z,13.94
2023-05-19T21:10:13.549Z,14.04
2023-05-19T21:12:41.123Z,13.97
2023-05-19T21:15:09.940Z,14.16
2023-05-19T21:17:37.370Z,14.12
2023-05-19T21:20:06.281Z,14.06
2023-05-19T21:22:35.222Z,13.94
2023-05-19T21:25:03.055Z,13.95
2023-05-19T21:27:30.620Z,13.97
2023-05-19T21:29:58.551Z,14.04
2023-05-19T21:32:25.937Z,14.00
2023-05-19T21:34:53.705Z,13.99
2023-05-19T21:37:21.252Z,14.05
2023-05-19T21:39:50.716Z,14.14
2023-05-19T21:42:18.199Z,14.12
2023-05-19T21:44:45.905Z,13.98
2023-05-19T21:47:13.303Z,13.94
2023-05-19T21:49:41.108Z,13.92
2023-05-19T21:52:08.682Z,13.94
2023-05-19T21:54:36.522Z,13.90
2023-05-19T21:57:05.914Z,13.86
2023-05-19T21:59:33.803Z,13.97
2023-05-19T22:02:01.374Z,13.94
2023-05-19T22:04:29.270Z,13.98
2023-05-19T22:06:57.037Z,13.94
2023-05-19T22:09:25.378Z,13.83
2023-05-19T22:11:52.812Z,13.83
2023-05-19T22:14:21.980Z,13.80
2023-05-19T22:16:49.542Z,13.75
2023-05-19T22:19:17.425Z,13.79
2023-05-19T22:21:45.619Z,13.66
2023-05-19T22:24:13.420Z,13.68
2023-05-19T22:26:40.962Z,13.66
2023-05-19T22:29:09.180Z,13.77
2023-05-19T22:31:39.064Z,13.75
2023-05-19T22:34:07.929Z,13.88
2023-05-19T22:36:35.916Z,13.93
2023-05-19T22:39:05.410Z,13.89
2023-05-19T22:41:35.220Z,13.75
2023-05-19T22:44:03.266Z,13.88
2023-05-19T22:46:30.862Z,13.90
2023-05-19T22:49:00.293Z,13.87
2023-05-19T22:51:27.681Z,13.83
2023-05-19T22:53:55.497Z,13.92
2023-05-19T22:56:23.018Z,13.94
2023-05-19T22:58:50.723Z,13.97
2023-05-19T23:01:22.036Z,13.88
2023-05-19T23:03:52.694Z,13.92
2023-05-19T23:06:22.598Z,13.84
2023-05-19T23:08:59.462Z,13.68
2023-05-19T23:11:27.855Z,13.72
2023-05-19T23:13:55.910Z,13.64
2023-05-19T23:16:24.151Z,13.67
2023-05-19T23:18:54.727Z,13.67
2023-05-19T23:21:24.084Z,13.67
2023-05-19T23:23:52.187Z,13.58
2023-05-19T23:26:19.787Z,13.66
2023-05-19T23:28:47.682Z,13.72
2023-05-19T23:31:15.436Z,13.59
2023-05-19T23:33:44.629Z,13.65
2023-05-19T23:36:14.565Z,13.68
2023-05-19T23:38:44.863Z,13.67
2023-05-19T23:41:12.661Z,13.64
2023-05-19T23:43:40.650Z,13.52
2023-05-19T23:46:08.577Z,13.53
2023-05-19T23:48:37.008Z,13.63
2023-05-19T23:51:05.109Z,13.60
2023-05-19T23:53:33.194Z,13.63
2023-05-19T23:56:02.201Z,13.58
2023-05-19T23:58:29.917Z,13.60
